createdAt,value
2022-09-12T00:01:10.353Z,15.51
2022-09-12T00:03:37.615Z,15.54
2022-09-12T00:06:11.648Z,15.58
2022-09-12T00:08:38.089Z,15.58
2022-09-12T00:11:05.575Z,15.57
2022-09-12T00:13:32.008Z,15.52
2022-09-12T00:15:58.724Z,15.49
2022-09-12T00:18:25.155Z,15.52
2022-09-12T00:20:51.561Z,15.49
2022-09-12T00:23:18.253Z,15.46
2022-09-12T00:25:45.568Z,15.48
2022-09-12T00:28:12.988Z,15.40
2022-09-12T00:30:43.372Z,15.32
2022-09-12T00:33:10.236Z,15.28
2022-09-12T00:35:44.272Z,15.25
2022-09-12T00:38:11.237Z,15.22
2022-09-12T00:40:37.885Z,15.21
2022-09-12T00:43:04.392Z,15.19
2022-09-12T00:45:31.159Z,15.14
2022-09-12T00:48:02.393Z,15.13
2022-09-12T00:50:29.524Z,15.14
2022-09-12T00:53:00.092Z,15.13
2022-09-12T00:55:30.075Z,15.14
2022-09-12T00:58:02.245Z,15.12
2022-09-12T01:00:29.524Z,15.11
2022-09-12T01:03:01.894Z,15.08
2022-09-12T01:05:29.434Z,15.05
2022-09-12T01:07:56.984Z,15.04
2022-09-12T01:10:24.039Z,15.04
2022-09-12T01:12:50.524Z,15.05
2022-09-12T01:15:17.035Z,15.03
2022-09-12T01:17:52.385Z,14.98
2022-09-12T01:20:28.365Z,15.01
2022-09-12T01:22:54.756Z,15.03
2022-09-12T01:25:39.791Z,15.05
2022-09-12T01:28:24.695Z,15.03
2022-09-12T01:31:12.360Z,15.01
2022-09-12T01:33:44.748Z,14.93
2022-09-12T01:36:15.581Z,14.92
2022-09-12T01:38:45.171Z,14.86
2022-09-12T01:41:18.775Z,14.85
2022-09-12T01:43:50.843Z,14.85
2022-09-12T01:46:19.075Z,14.81
2022-09-12T01:49:07.223Z,14.79
2022-09-12T01:51:39.905Z,14.70
2022-09-12T01:54:09.800Z,14.69
2022-09-12T01:56:38.392Z,14.67
2022-09-12T01:59:08.688Z,14.69
2022-09-12T02:01:36.843Z,14.68
2022-09-12T02:04:10.513Z,14.63
2022-09-12T02:06:40.178Z,14.61
2022-09-12T02:09:09.271Z,14.63
2022-09-12T02:11:38.659Z,14.61
2022-09-12T02:14:10.430Z,14.58
2022-09-12T02:16:46.440Z,14.51
2022-09-12T02:19:16.035Z,14.50
2022-09-12T02:21:46.107Z,14.48
2022-09-12T02:24:14.991Z,14.44
2022-09-12T02:26:44.290Z,14.39
2022-09-12T02:29:10.751Z,14.36
2022-09-12T02:31:47.703Z,14.38
2022-09-12T02:34:14.130Z,14.33
2022-09-12T02:36:40.626Z,14.31
2022-09-12T02:39:07.091Z,14.28
2022-09-12T02:41:33.613Z,14.25
2022-09-12T02:44:00.155Z,14.26
2022-09-12T02:46:37.144Z,14.20
2022-09-12T02:49:03.703Z,14.16
2022-09-12T02:51:30.704Z,14.15
2022-09-12T02:53:57.485Z,14.13
2022-09-12T02:56:26.073Z,14.14
2022-09-12T02:58:53.093Z,14.14
2022-09-12T03:01:19.549Z,14.13
2022-09-12T03:04:04.831Z,14.13
2022-09-12T03:06:37.875Z,14.18
2022-09-12T03:09:36.500Z,14.13
2022-09-12T03:12:11.943Z,14.08
2022-09-12T03:14:47.495Z,14.08
2022-09-12T03:17:27.033Z,14.04
2022-09-12T03:20:03.309Z,13.98
2022-09-12T03:22:29.834Z,13.98
2022-09-12T03:24:56.268Z,13.93
2022-09-12T03:27:27.528Z,13.94
2022-09-12T03:29:55.805Z,13.92
2022-09-12T03:32:40.015Z,13.91
2022-09-12T03:35:06.708Z,13.93
2022-09-12T03:37:33.128Z,13.91
2022-09-12T03:39:59.581Z,13.89
2022-09-12T03:42:26.030Z,13.87
2022-09-12T03:44:52.487Z,13.81
2022-09-12T03:47:18.980Z,13.81
2022-09-12T03:49:45.663Z,13.79
2022-09-12T03:52:12.289Z,13.79
2022-09-12T03:54:39.782Z,13.79
2022-09-12T03:57:06.239Z,13.76
2022-09-12T03:59:32.880Z,13.75
2022-09-12T04:01:59.632Z,13.71
2022-09-12T04:04:26.111Z,13.69
2022-09-12T04:06:52.532Z,13.65
2022-09-12T04:09:19.154Z,13.64
2022-09-12T04:11:45.594Z,13.64
2022-09-12T04:14:12.176Z,13.64
2022-09-12T04:16:38.666Z,13.60
2022-09-12T04:19:05.163Z,13.56
2022-09-12T04:21:32.081Z,13.55
2022-09-12T04:24:10.624Z,13.54
2022-09-12T04:26:37.028Z,13.51
2022-09-12T04:29:03.763Z,13.47
2022-09-12T04:31:30.322Z,13.46
2022-09-12T04:33:57.938Z,13.46
2022-09-12T04:36:25.038Z,13.45
2022-09-12T04:38:51.569Z,13.51
2022-09-12T04:41:19.339Z,13.54
2022-09-12T04:43:49.018Z,13.50
2022-09-12T04:46:16.739Z,13.50
2022-09-12T04:48:43.806Z,13.49
2022-09-12T04:51:16.232Z,13.51
2022-09-12T04:53:43.228Z,13.52
2022-09-12T04:56:10.642Z,13.54
2022-09-12T04:58:37.649Z,13.58
2022-09-12T05:01:08.158Z,13.60
2022-09-12T05:03:35.338Z,13.67
2022-09-12T05:06:03.607Z,13.69
2022-09-12T05:08:30.069Z,13.76
2022-09-12T05:10:57.222Z,13.70
2022-09-12T05:13:23.776Z,13.78
2022-09-12T05:15:57.167Z,13.74
2022-09-12T05:18:23.852Z,13.86
2022-09-12T05:20:50.795Z,13.92
2022-09-12T05:23:17.279Z,13.89
2022-09-12T05:25:50.836Z,13.96
2022-09-12T05:28:17.621Z,14.02
2022-09-12T05:30:44.124Z,14.10
2022-09-12T05:33:11.164Z,14.14
2022-09-12T05:35:38.657Z,14.24
2022-09-12T05:38:06.217Z,14.18
2022-09-12T05:40:33.262Z,14.20
2022-09-12T05:42:59.744Z,14.22
2022-09-12T05:45:27.088Z,14.35
2022-09-12T05:47:56.455Z,14.41
2022-09-12T05:50:22.968Z,14.66
2022-09-12T05:52:49.474Z,14.77
2022-09-12T05:55:16.655Z,14.88
2022-09-12T05:57:46.281Z,14.97
2022-09-12T06:00:14.653Z,14.87
2022-09-12T06:02:41.142Z,14.92
2022-09-12T06:05:07.698Z,14.95
2022-09-12T06:07:35.701Z,14.91
2022-09-12T06:10:02.774Z,15.07
2022-09-12T06:12:30.040Z,15.27
2022-09-12T06:14:56.621Z,15.45
2022-09-12T06:17:23.270Z,15.67
2022-09-12T06:19:53.627Z,15.75
2022-09-12T06:22:23.557Z,15.76
2022-09-12T06:24:50.004Z,15.75
2022-09-12T06:27:16.458Z,16.03
2022-09-12T06:29:42.892Z,16.10
2022-09-12T06:32:11.643Z,15.90
2022-09-12T06:34:38.094Z,15.99
2022-09-12T06:37:04.621Z,15.84
2022-09-12T06:39:32.612Z,15.86
2022-09-12T06:41:59.073Z,16.61
2022-09-12T06:44:25.523Z,16.57
2022-09-12T06:46:53.699Z,16.44
2022-09-12T06:49:20.095Z,16.39
2022-09-12T06:51:46.664Z,16.23
2022-09-12T06:54:13.844Z,16.19
2022-09-12T06:56:40.628Z,16.17
2022-09-12T06:59:07.106Z,16.41
2022-09-12T07:01:33.572Z,16.50
2022-09-12T07:04:01.200Z,16.57
2022-09-12T07:06:45.800Z,16.42
2022-09-12T07:09:13.767Z,16.40
2022-09-12T07:11:41.502Z,16.58
2022-09-12T07:14:09.505Z,16.47
2022-09-12T07:16:36.829Z,16.58
2022-09-12T07:19:04.555Z,16.67
2022-09-12T07:21:31.101Z,16.76
2022-09-12T07:24:00.305Z,16.76
2022-09-12T07:26:27.567Z,16.75
2022-09-12T07:29:07.815Z,16.77
2022-09-12T07:31:42.510Z,16.88
2022-09-12T07:34:08.983Z,16.94
2022-09-12T07:36:35.481Z,17.07
2022-09-12T07:39:02.085Z,17.17
2022-09-12T07:41:29.990Z,17.40
2022-09-12T07:43:57.774Z,17.51
2022-09-12T07:46:25.103Z,17.38
2022-09-12T07:48:52.346Z,17.74
2022-09-12T07:51:19.265Z,18.48
2022-09-12T07:53:46.026Z,18.62
2022-09-12T07:56:12.998Z,18.92
2022-09-12T07:58:40.641Z,18.95
2022-09-12T08:01:08.959Z,18.77
2022-09-12T08:03:36.005Z,18.50
2022-09-12T08:06:03.427Z,18.24
2022-09-12T08:08:29.919Z,18.45
2022-09-12T08:11:00.068Z,18.61
2022-09-12T08:13:31.451Z,18.99
2022-09-12T08:16:00.010Z,18.89
2022-09-12T08:18:27.393Z,19.51
2022-09-12T08:20:58.108Z,19.90
2022-09-12T08:23:25.183Z,19.87
2022-09-12T08:25:52.162Z,19.15
2022-09-12T08:28:18.600Z,18.95
2022-09-12T08:30:45.020Z,19.45
2022-09-12T08:33:12.041Z,19.41
2022-09-12T08:35:38.775Z,19.28
2022-09-12T08:38:05.368Z,19.36
2022-09-12T08:40:34.086Z,19.31
2022-09-12T08:43:11.503Z,19.56
2022-09-12T08:45:46.784Z,19.82
2022-09-12T08:48:14.070Z,20.28
2022-09-12T08:50:49.247Z,20.49
2022-09-12T08:53:19.382Z,19.64
2022-09-12T08:56:06.130Z,19.22
2022-09-12T08:58:36.775Z,19.76
2022-09-12T09:01:10.053Z,20.93
2022-09-12T09:03:44.310Z,20.41
2022-09-12T09:06:14.095Z,19.91
2022-09-12T09:08:50.666Z,20.18
2022-09-12T09:11:37.752Z,21.23
2022-09-12T09:14:41.497Z,21.84
2022-09-12T09:17:13.197Z,21.95
2022-09-12T09:19:50.828Z,21.30
2022-09-12T09:22:27.141Z,21.55
2022-09-12T09:24:58.240Z,21.75
2022-09-12T09:27:46.624Z,22.28
2022-09-12T09:30:14.892Z,22.37
2022-09-12T09:32:41.753Z,22.69
2022-09-12T09:35:16.497Z,23.01
2022-09-12T09:37:45.288Z,23.47
2022-09-12T09:40:23.266Z,23.83
2022-09-12T09:42:55.533Z,23.71
2022-09-12T09:45:24.401Z,23.79
2022-09-12T09:48:03.831Z,22.98
2022-09-12T09:50:30.368Z,22.50
2022-09-12T09:52:58.374Z,22.48
2022-09-12T09:55:28.180Z,22.89
2022-09-12T09:57:54.627Z,22.93
2022-09-12T10:00:21.933Z,22.90
2022-09-12T10:03:17.517Z,22.52
2022-09-12T10:05:54.922Z,23.59
2022-09-12T10:08:31.655Z,23.52
2022-09-12T10:10:59.859Z,22.89
2022-09-12T10:13:41.201Z,22.52
2022-09-12T10:16:18.903Z,22.17
2022-09-12T10:18:45.843Z,21.72
2022-09-12T10:21:29.600Z,21.97
2022-09-12T10:24:34.491Z,22.11
2022-09-12T10:27:12.704Z,21.94
2022-09-12T10:29:45.798Z,21.68
2022-09-12T10:32:14.284Z,21.56
2022-09-12T10:34:45.474Z,21.55
2022-09-12T10:37:17.715Z,21.83
2022-09-12T10:39:50.137Z,21.82
2022-09-12T10:42:21.567Z,22.75
2022-09-12T10:44:54.310Z,22.84
2022-09-12T10:47:22.493Z,22.13
2022-09-12T10:49:50.976Z,21.84
2022-09-12T10:52:24.281Z,21.50
2022-09-12T10:54:51.497Z,21.53
2022-09-12T10:57:18.032Z,21.54
2022-09-12T10:59:44.450Z,21.37
2022-09-12T11:02:19.728Z,21.36
2022-09-12T11:04:55.465Z,22.05
2022-09-12T11:07:29.463Z,22.83
2022-09-12T11:10:14.837Z,22.56
2022-09-12T11:12:47.839Z,22.12
2022-09-12T11:15:14.366Z,21.94
2022-09-12T11:17:49.727Z,21.61
2022-09-12T11:20:36.274Z,21.60
2022-09-12T11:23:17.721Z,23.21
2022-09-12T11:25:59.743Z,23.44
2022-09-12T11:28:30.918Z,21.82
2022-09-12T11:31:04.533Z,21.78
2022-09-12T11:33:31.097Z,22.93
2022-09-12T11:35:57.831Z,23.71
2022-09-12T11:38:24.273Z,23.81
2022-09-12T11:40:56.487Z,23.55
2022-09-12T11:43:42.115Z,22.87
2022-09-12T11:46:13.822Z,23.24
2022-09-12T11:48:40.334Z,24.30
2022-09-12T11:51:15.157Z,24.56
2022-09-12T11:53:43.982Z,24.20
2022-09-12T11:56:19.258Z,23.65
2022-09-12T11:58:59.227Z,23.28
2022-09-12T12:01:28.697Z,24.19
2022-09-12T12:03:57.063Z,24.01
2022-09-12T12:06:39.889Z,24.76
2022-09-12T12:09:06.388Z,24.64
2022-09-12T12:11:38.122Z,23.75
2022-09-12T12:14:07.116Z,24.03
2022-09-12T12:16:35.097Z,24.85
2022-09-12T12:19:04.759Z,25.70
2022-09-12T12:21:41.033Z,26.39
2022-09-12T12:24:07.616Z,25.71
2022-09-12T12:26:40.028Z,24.89
2022-09-12T12:29:13.431Z,24.19
2022-09-12T12:31:58.376Z,24.29
2022-09-12T12:34:54.067Z,23.92
2022-09-12T12:37:20.924Z,24.63
2022-09-12T12:39:51.109Z,24.40
2022-09-12T12:42:32.718Z,24.30
2022-09-12T12:44:59.851Z,23.93
2022-09-12T12:47:28.967Z,24.57
2022-09-12T12:50:10.791Z,25.17
2022-09-12T12:52:45.855Z,25.94
2022-09-12T12:55:16.588Z,26.45
2022-09-12T12:57:48.867Z,27.18
2022-09-12T13:00:21.269Z,26.68
2022-09-12T13:02:58.182Z,27.50
2022-09-12T13:05:26.324Z,26.73
2022-09-12T13:07:58.367Z,26.03
2022-09-12T13:10:28.886Z,24.97
2022-09-12T13:13:01.386Z,24.82
2022-09-12T13:15:36.938Z,24.90
2022-09-12T13:18:10.199Z,25.32
2022-09-12T13:20:45.180Z,25.37
2022-09-12T13:23:25.902Z,24.53
2022-09-12T13:25:54.020Z,24.21
2022-09-12T13:28:20.583Z,24.04
2022-09-12T13:31:07.328Z,23.86
2022-09-12T13:33:40.089Z,24.75
2022-09-12T13:36:24.591Z,24.69
2022-09-12T13:38:56.989Z,24.37
2022-09-12T13:41:39.358Z,23.94
2022-09-12T13:44:09.988Z,23.85
2022-09-12T13:46:36.805Z,24.23
2022-09-12T13:49:11.286Z,24.68
2022-09-12T13:51:37.987Z,24.28
2022-09-12T13:54:05.542Z,24.21
2022-09-12T13:56:32.125Z,24.13
2022-09-12T13:59:00.445Z,23.99
2022-09-12T14:01:41.166Z,23.84
2022-09-12T14:04:33.779Z,23.84
2022-09-12T14:07:02.088Z,23.59
2022-09-12T14:09:31.200Z,23.65
2022-09-12T14:11:58.444Z,23.65
2022-09-12T14:14:27.495Z,23.64
2022-09-12T14:16:54.847Z,23.38
2022-09-12T14:19:23.219Z,23.43
2022-09-12T14:21:50.883Z,23.61
2022-09-12T14:24:17.375Z,24.04
2022-09-12T14:26:44.948Z,24.15
2022-09-12T14:29:15.379Z,24.00
2022-09-12T14:31:43.605Z,23.84
2022-09-12T14:34:12.999Z,24.04
2022-09-12T14:36:42.315Z,23.83
2022-09-12T14:39:24.027Z,23.74
2022-09-12T14:41:51.644Z,23.71
2022-09-12T14:44:21.073Z,23.92
2022-09-12T14:46:48.512Z,23.84
2022-09-12T14:49:33.601Z,23.79
2022-09-12T14:52:02.504Z,23.52
2022-09-12T14:54:29.238Z,23.38
2022-09-12T14:57:03.411Z,23.64
2022-09-12T14:59:35.984Z,23.36
2022-09-12T15:02:21.082Z,23.32
2022-09-12T15:04:48.920Z,23.61
2022-09-12T15:07:16.750Z,24.02
2022-09-12T15:09:47.253Z,25.22
2022-09-12T15:12:14.042Z,25.72
2022-09-12T15:14:40.765Z,25.36
2022-09-12T15:17:07.266Z,25.39
2022-09-12T15:19:33.717Z,25.54
2022-09-12T15:22:00.176Z,24.85
2022-09-12T15:24:26.654Z,23.88
2022-09-12T15:26:53.722Z,23.71
2022-09-12T15:29:20.477Z,23.31
2022-09-12T15:31:48.145Z,23.12
2022-09-12T15:34:15.799Z,23.06
2022-09-12T15:36:42.253Z,22.98
2022-09-12T15:39:09.368Z,22.71
2022-09-12T15:41:39.950Z,22.54
2022-09-12T15:44:08.251Z,22.53
2022-09-12T15:46:34.827Z,22.47
2022-09-12T15:49:01.573Z,22.34
2022-09-12T15:51:28.106Z,22.29
2022-09-12T15:53:54.808Z,22.12
2022-09-12T15:56:22.279Z,21.99
2022-09-12T15:58:58.860Z,21.94
2022-09-12T16:01:27.199Z,21.88
2022-09-12T16:03:53.748Z,21.81
2022-09-12T16:06:20.526Z,21.81
2022-09-12T16:08:47.132Z,21.89
2022-09-12T16:11:21.376Z,21.59
2022-09-12T16:13:48.701Z,21.54
2022-09-12T16:16:15.406Z,21.49
2022-09-12T16:18:42.335Z,21.81
2022-09-12T16:21:12.800Z,22.10
2022-09-12T16:23:44.685Z,21.84
2022-09-12T16:26:11.149Z,22.24
2022-09-12T16:28:37.676Z,21.73
2022-09-12T16:31:05.104Z,21.46
2022-09-12T16:33:31.889Z,21.29
2022-09-12T16:36:06.071Z,21.30
2022-09-12T16:38:33.802Z,21.10
2022-09-12T16:41:04.449Z,20.91
2022-09-12T16:43:32.148Z,20.73
2022-09-12T16:46:02.928Z,20.64
2022-09-12T16:48:29.684Z,20.59
2022-09-12T16:51:01.605Z,20.48
2022-09-12T16:53:31.991Z,20.39
2022-09-12T16:55:58.448Z,20.31
2022-09-12T16:58:25.355Z,20.27
2022-09-12T17:01:05.501Z,20.18
2022-09-12T17:03:32.143Z,20.14
2022-09-12T17:06:09.073Z,20.10
2022-09-12T17:08:36.840Z,20.05
2022-09-12T17:11:04.768Z,20.02
2022-09-12T17:13:52.905Z,19.95
2022-09-12T17:16:19.356Z,19.93
2022-09-12T17:18:45.930Z,19.92
2022-09-12T17:21:12.834Z,19.86
2022-09-12T17:23:39.668Z,19.82
2022-09-12T17:26:06.571Z,19.80
2022-09-12T17:28:32.983Z,19.80
2022-09-12T17:31:00.884Z,19.72
2022-09-12T17:33:27.832Z,19.68
2022-09-12T17:35:54.917Z,19.64
2022-09-12T17:38:25.147Z,19.60
2022-09-12T17:40:59.452Z,19.61
2022-09-12T17:43:26.541Z,19.58
2022-09-12T17:45:59.253Z,19.54
2022-09-12T17:48:25.736Z,19.50
2022-09-12T17:50:52.689Z,19.49
2022-09-12T17:53:19.247Z,19.47
2022-09-12T17:55:46.098Z,19.45
2022-09-12T17:58:12.791Z,19.45
2022-09-12T18:00:58.062Z,19.40
2022-09-12T18:03:24.626Z,19.37
2022-09-12T18:05:55.379Z,19.34
2022-09-12T18:08:23.145Z,19.30
2022-09-12T18:10:51.040Z,19.26
2022-09-12T18:13:20.897Z,19.22
2022-09-12T18:15:47.370Z,19.17
2022-09-12T18:18:13.809Z,19.15
2022-09-12T18:20:49.401Z,19.14
2022-09-12T18:23:15.907Z,19.09
2022-09-12T18:25:42.434Z,19.09
2022-09-12T18:28:09.456Z,19.06
2022-09-12T18:30:35.920Z,19.02
2022-09-12T18:33:02.407Z,19.00
2022-09-12T18:35:28.899Z,18.94
2022-09-12T18:37:55.799Z,18.86
2022-09-12T18:40:22.280Z,18.73
2022-09-12T18:42:48.846Z,18.71
2022-09-12T18:45:15.404Z,18.63
2022-09-12T18:47:42.010Z,18.65
2022-09-12T18:50:09.204Z,18.62
2022-09-12T18:52:35.716Z,18.59
2022-09-12T18:55:02.150Z,18.55
2022-09-12T18:57:30.579Z,18.47
2022-09-12T18:59:59.677Z,18.41
2022-09-12T19:02:28.565Z,18.36
2022-09-12T19:04:55.127Z,18.30
2022-09-12T19:07:21.570Z,18.25
2022-09-12T19:09:48.110Z,18.24
2022-09-12T19:12:14.540Z,18.21
2022-09-12T19:14:41.068Z,18.18
2022-09-12T19:17:08.030Z,18.14
2022-09-12T19:19:38.733Z,18.08
2022-09-12T19:22:06.946Z,18.04
2022-09-12T19:24:33.957Z,17.99
2022-09-12T19:27:00.440Z,18.00
2022-09-12T19:29:27.292Z,17.96
2022-09-12T19:31:53.801Z,17.95
2022-09-12T19:34:20.335Z,17.87
2022-09-12T19:36:47.539Z,17.83
2022-09-12T19:39:15.068Z,17.78
2022-09-12T19:41:41.511Z,17.74
2022-09-12T19:44:08.173Z,17.69
2022-09-12T19:46:34.665Z,17.67
2022-09-12T19:49:01.339Z,17.66
2022-09-12T19:51:27.872Z,17.61
2022-09-12T19:53:54.387Z,17.56
2022-09-12T19:56:21.342Z,17.55
2022-09-12T19:58:53.440Z,17.53
2022-09-12T20:01:24.982Z,17.54
2022-09-12T20:03:54.314Z,17.52
2022-09-12T20:06:21.205Z,17.48
2022-09-12T20:08:47.765Z,17.40
2022-09-12T20:11:16.088Z,17.35
2022-09-12T20:13:42.548Z,17.38
2022-09-12T20:16:22.154Z,17.33
2022-09-12T20:18:53.004Z,17.34
2022-09-12T20:21:21.866Z,17.31
2022-09-12T20:23:48.497Z,17.26
2022-09-12T20:26:14.941Z,17.25
2022-09-12T20:28:41.953Z,17.22
2022-09-12T20:31:10.924Z,17.21
2022-09-12T20:33:37.518Z,17.20
2022-09-12T20:36:05.601Z,17.20
2022-09-12T20:38:32.269Z,17.18
2022-09-12T20:41:00.843Z,17.13
2022-09-12T20:43:27.583Z,17.07
2022-09-12T20:45:54.290Z,17.02
2022-09-12T20:48:20.903Z,16.98
2022-09-12T20:50:47.576Z,16.93
2022-09-12T20:53:14.469Z,16.88
2022-09-12T20:55:41.036Z,16.83
2022-09-12T20:58:07.645Z,16.81
2022-09-12T21:00:34.299Z,16.80
2022-09-12T21:03:00.972Z,16.78
2022-09-12T21:05:27.403Z,16.76
2022-09-12T21:07:53.919Z,16.74
2022-09-12T21:10:20.414Z,16.73
2022-09-12T21:12:46.862Z,16.68
2022-09-12T21:15:13.327Z,16.67
2022-09-12T21:17:39.802Z,16.65
2022-09-12T21:20:11.167Z,16.61
2022-09-12T21:22:38.016Z,16.60
2022-09-12T21:25:04.983Z,16.59
2022-09-12T21:27:31.465Z,16.56
2022-09-12T21:29:58.124Z,16.55
2022-09-12T21:32:24.643Z,16.54
2022-09-12T21:34:51.393Z,16.53
2022-09-12T21:37:17.827Z,16.53
2022-09-12T21:39:44.371Z,16.52
2022-09-12T21:42:10.850Z,16.47
2022-09-12T21:44:37.354Z,16.43
2022-09-12T21:47:03.830Z,16.43
2022-09-12T21:49:30.311Z,16.42
2022-09-12T21:51:56.947Z,16.42
2022-09-12T21:54:23.361Z,16.40
2022-09-12T21:56:49.814Z,16.34
2022-09-12T21:59:16.231Z,16.30
2022-09-12T22:01:42.866Z,16.29
2022-09-12T22:04:10.214Z,16.26
2022-09-12T22:06:36.859Z,16.23
2022-09-12T22:09:04.335Z,16.22
2022-09-12T22:11:30.755Z,16.20
2022-09-12T22:13:57.349Z,16.16
2022-09-12T22:16:23.871Z,16.13
2022-09-12T22:18:50.844Z,16.10
2022-09-12T22:21:18.880Z,16.06
2022-09-12T22:24:04.038Z,16.03
2022-09-12T22:26:32.208Z,16.03
2022-09-12T22:28:58.678Z,16.00
2022-09-12T22:31:27.052Z,15.97
2022-09-12T22:33:59.634Z,15.95
2022-09-12T22:36:30.442Z,15.90
2022-09-12T22:38:57.865Z,15.84
2022-09-12T22:41:24.663Z,15.77
2022-09-12T22:43:51.119Z,15.76
2022-09-12T22:46:17.625Z,15.75
2022-09-12T22:48:44.103Z,15.71
2022-09-12T22:51:11.236Z,15.68
2022-09-12T22:53:37.710Z,15.62
2022-09-12T22:56:05.199Z,15.56
2022-09-12T22:58:32.107Z,15.51
2022-09-12T23:00:58.646Z,15.48
2022-09-12T23:03:25.279Z,15.48
2022-09-12T23:05:52.010Z,15.43
2022-09-12T23:08:19.352Z,15.40
2022-09-12T23:10:46.093Z,15.33
2022-09-12T23:13:12.667Z,15.31
2022-09-12T23:15:39.187Z,15.27
2022-09-12T23:18:05.609Z,15.22
2022-09-12T23:20:32.025Z,15.20
2022-09-12T23:22:58.467Z,15.20
2022-09-12T23:25:26.293Z,15.19
2022-09-12T23:27:52.956Z,15.17
2022-09-12T23:30:21.611Z,15.15
2022-09-12T23:32:49.111Z,15.13
2022-09-12T23:35:18.095Z,15.08
2022-09-12T23:37:44.743Z,15.07
2022-09-12T23:40:11.367Z,15.03
2022-09-12T23:42:37.899Z,15.00
2022-09-12T23:45:04.544Z,14.94
2022-09-12T23:47:30.967Z,14.83
2022-09-12T23:49:57.421Z,14.77
2022-09-12T23:52:23.860Z,14.66
2022-09-12T23:54:50.323Z,14.63
2022-09-12T23:57:16.809Z,14.63
2022-09-12T23:59:43.228Z,14.59
